Time;durP1;ratioP1;P1;durP2;ratioP2;P2;SDS_P1;SDS_P2;PMS_P1;PMS_P2;Temp;Humidity;BMP_temperature;BMP_pressure;BME280_temperature;BME280_humidity;BME280_pressure;Samples;Min_cycle;Max_cycle;Signal;HPM_P1;HPM_P2
2023/10/25 00:01:40;;;;;;;9.90;9.60;;;21.70;93.90;;;;;;5051990;28;20471;-66
2023/10/25 00:04:07;;;;;;;11.13;10.73;;;21.60;93.90;;;;;;5051905;28;20440;-67
2023/10/25 00:06:35;;;;;;;10.50;10.20;;;21.60;93.90;;;;;;5051842;28;21004;-66
2023/10/25 00:09:02;;;;;;;10.57;10.00;;;21.60;93.80;;;;;;5051863;28;20479;-66
2023/10/25 00:11:29;;;;;;;10.63;10.33;;;21.60;93.80;;;;;;5051810;28;20440;-66
2023/10/25 00:13:56;;;;;;;12.63;11.93;;;21.60;93.80;;;;;;5051762;28;20490;-66
2023/10/25 00:16:23;;;;;;;11.87;11.47;;;21.60;93.80;;;;;;5051750;28;20440;-66
2023/10/25 00:18:50;;;;;;;12.80;12.40;;;21.60;93.80;;;;;;5051689;28;20512;-66
2023/10/25 00:21:17;;;;;;;12.17;11.87;;;21.60;93.70;;;;;;5051682;28;20471;-67
2023/10/25 00:23:45;;;;;;;12.33;12.00;;;21.60;93.80;;;;;;5051744;28;20464;-66
2023/10/25 00:26:12;;;;;;;12.30;11.90;;;21.60;93.80;;;;;;5051591;28;20448;-66
2023/10/25 00:28:39;;;;;;;11.63;11.10;;;21.60;93.70;;;;;;5051548;28;20940;-66
2023/10/25 00:31:06;;;;;;;12.17;11.87;;;21.60;93.70;;;;;;5051745;28;20440;-66
2023/10/25 00:33:33;;;;;;;12.60;12.30;;;21.60;93.70;;;;;;5051666;28;20483;-66
2023/10/25 00:35:59;;;;;;;13.07;12.77;;;21.60;93.70;;;;;;5051803;28;20540;-66
2023/10/25 00:38:26;;;;;;;13.60;13.20;;;21.60;93.70;;;;;;5051367;28;20543;-66
2023/10/25 00:40:55;;;;;;;10.13;9.73;;;21.50;93.60;;;;;;5051480;28;20472;-66
2023/10/25 00:43:22;;;;;;;10.70;10.40;;;21.60;93.70;;;;;;5051436;28;20468;-66
2023/10/25 00:46:01;;;;;;;10.20;10.00;;;21.50;93.70;;;;;;5051493;28;20466;-66
2023/10/25 00:48:29;;;;;;;9.80;9.60;;;21.50;93.70;;;;;;5051199;28;20468;-66
2023/10/25 00:50:57;;;;;;;10.40;10.10;;;21.50;93.60;;;;;;5051372;28;20966;-66
2023/10/25 00:53:25;;;;;;;11.00;10.60;;;21.50;93.70;;;;;;5054778;28;20475;-67
2023/10/25 00:55:54;;;;;;;11.27;10.87;;;21.50;93.60;;;;;;5055520;28;20476;-66
2023/10/25 00:58:22;;;;;;;10.43;9.90;;;21.50;93.70;;;;;;5055273;28;20567;-66
2023/10/25 01:00:49;;;;;;;10.33;10.13;;;21.50;93.70;;;;;;5055542;28;20986;-66
2023/10/25 01:03:17;;;;;;;11.00;10.60;;;21.50;93.60;;;;;;5055501;28;20582;-66
2023/10/25 01:05:44;;;;;;;11.30;11.00;;;21.50;93.60;;;;;;5055388;28;20714;-66
2023/10/25 01:08:11;;;;;;;9.97;9.77;;;21.50;93.60;;;;;;5055192;28;20498;-66
2023/10/25 01:10:38;;;;;;;10.10;9.90;;;21.50;93.60;;;;;;5055340;28;20479;-66
2023/10/25 01:13:06;;;;;;;10.50;10.20;;;21.50;93.60;;;;;;5055148;28;20495;-66
2023/10/25 01:15:33;;;;;;;11.00;10.50;;;21.50;93.70;;;;;;5055075;28;20478;-66
2023/10/25 01:18:00;;;;;;;10.83;10.53;;;21.40;93.60;;;;;;5054930;28;20523;-66
2023/10/25 01:20:27;;;;;;;10.13;9.83;;;21.50;93.70;;;;;;5055108;28;20480;-66
2023/10/25 01:22:55;;;;;;;10.30;10.00;;;21.40;93.60;;;;;;5055008;28;20475;-66
2023/10/25 01:25:22;;;;;;;10.20;9.90;;;21.50;93.60;;;;;;5054967;28;20483;-66
2023/10/25 01:27:49;;;;;;;10.87;10.47;;;21.40;93.60;;;;;;5054789;28;20484;-66
2023/10/25 01:30:16;;;;;;;10.90;10.60;;;21.50;93.60;;;;;;5054949;28;20472;-66
2023/10/25 01:32:43;;;;;;;10.77;10.47;;;21.40;93.60;;;;;;5054797;28;20483;-66
2023/10/25 01:35:10;;;;;;;10.87;10.57;;;21.40;93.60;;;;;;5054718;28;20444;-66
2023/10/25 01:37:37;;;;;;;10.33;10.03;;;21.40;93.60;;;;;;5054631;28;20575;-66
2023/10/25 01:40:06;;;;;;;10.10;9.70;;;21.40;93.60;;;;;;5054776;28;20472;-66
2023/10/25 01:42:33;;;;;;;11.20;10.80;;;21.40;93.60;;;;;;5054619;28;20978;-66
2023/10/25 01:45:01;;;;;;;10.40;10.10;;;21.40;93.50;;;;;;5054696;28;20484;-67
2023/10/25 01:47:28;;;;;;;10.40;10.10;;;21.40;93.60;;;;;;5054505;28;20494;-66
2023/10/25 01:49:55;;;;;;;11.23;10.87;;;21.40;93.50;;;;;;5054590;28;20471;-66
2023/10/25 01:52:22;;;;;;;11.40;11.10;;;21.40;93.60;;;;;;5054579;28;20482;-66
2023/10/25 01:54:50;;;;;;;11.10;10.80;;;21.40;93.60;;;;;;5054375;28;20474;-66
2023/10/25 01:57:18;;;;;;;10.60;10.30;;;21.40;93.60;;;;;;5054343;28;20951;-66
2023/10/25 01:59:46;;;;;;;10.87;10.47;;;21.30;93.50;;;;;;5054522;28;20850;-66
2023/10/25 02:02:13;;;;;;;11.33;10.93;;;21.30;93.50;;;;;;5054260;28;20476;-66
2023/10/25 02:04:40;;;;;;;10.93;10.63;;;21.30;93.50;;;;;;5052770;28;20471;-66
2023/10/25 02:07:07;;;;;;;10.70;10.30;;;21.30;93.50;;;;;;5054191;28;20495;-66
2023/10/25 02:09:34;;;;;;;10.73;10.43;;;21.30;93.50;;;;;;5054091;28;20476;-66
2023/10/25 02:12:00;;;;;;;11.30;11.00;;;21.40;93.50;;;;;;5054077;28;20472;-66
2023/10/25 02:14:29;;;;;;;10.80;10.50;;;21.40;93.50;;;;;;5053975;28;20860;-66
2023/10/25 02:16:56;;;;;;;11.50;11.20;;;21.30;93.50;;;;;;5053893;28;20494;-66
2023/10/25 02:19:22;;;;;;;11.30;11.00;;;21.30;93.50;;;;;;5053809;28;20571;-66
2023/10/25 02:21:49;;;;;;;11.93;11.53;;;21.30;93.50;;;;;;5053875;28;20480;-67
2023/10/25 02:24:17;;;;;;;11.60;11.20;;;21.30;93.50;;;;;;5054055;28;20447;-67
2023/10/25 02:26:44;;;;;;;12.63;12.33;;;21.30;93.50;;;;;;5053756;28;20464;-66
2023/10/25 02:29:11;;;;;;;11.60;11.30;;;21.30;93.60;;;;;;5053872;28;20486;-66
2023/10/25 02:31:39;;;;;;;10.37;10.17;;;21.30;93.60;;;;;;5053743;28;20468;-66
2023/10/25 02:34:06;;;;;;;11.20;10.90;;;21.30;93.90;;;;;;5053734;28;20543;-66
2023/10/25 02:36:34;;;;;;;11.00;10.60;;;21.20;93.50;;;;;;5053624;28;20506;-66
2023/10/25 02:39:01;;;;;;;11.00;10.70;;;21.20;93.50;;;;;;5053487;28;20575;-67
2023/10/25 02:41:28;;;;;;;10.83;10.50;;;21.30;93.50;;;;;;5053548;28;20439;-66
2023/10/25 02:43:56;;;;;;;11.37;11.07;;;21.30;93.50;;;;;;5053636;28;20472;-66
2023/10/25 02:46:23;;;;;;;11.60;11.30;;;21.30;93.50;;;;;;5053262;28;20539;-66
2023/10/25 02:48:52;;;;;;;11.40;11.10;;;21.30;93.60;;;;;;5059953;22;20536;-67
2023/10/25 02:51:19;;;;;;;10.93;10.70;;;21.20;93.50;;;;;;5033351;28;20441;-67
2023/10/25 02:53:46;;;;;;;11.40;11.00;;;21.20;93.50;;;;;;5033203;28;20476;-67
2023/10/25 02:56:13;;;;;;;11.10;10.70;;;21.20;93.50;;;;;;5033115;28;20948;-67
2023/10/25 02:58:40;;;;;;;12.00;11.60;;;21.20;93.50;;;;;;5032996;28;20516;-67
2023/10/25 03:01:07;;;;;;;11.60;11.30;;;21.20;93.60;;;;;;5024839;28;20473;-67
2023/10/25 03:03:35;;;;;;;12.13;11.83;;;21.20;93.50;;;;;;5033031;28;20974;-67
2023/10/25 03:06:03;;;;;;;12.53;12.20;;;21.20;93.50;;;;;;5032955;28;22675;-67
2023/10/25 03:08:31;;;;;;;12.00;11.70;;;21.30;93.60;;;;;;5032866;28;20500;-67
2023/10/25 03:10:58;;;;;;;12.33;11.93;;;21.30;93.60;;;;;;5032809;28;20484;-67
2023/10/25 03:13:25;;;;;;;12.90;12.60;;;21.20;93.50;;;;;;5033046;28;20860;-67
2023/10/25 03:15:51;;;;;;;12.20;11.80;;;21.30;93.60;;;;;;5032260;28;20530;-67
2023/10/25 03:18:19;;;;;;;12.50;12.10;;;21.20;93.50;;;;;;5032828;28;20520;-67
2023/10/25 03:20:46;;;;;;;12.30;12.00;;;21.20;93.50;;;;;;5032597;28;20503;-67
2023/10/25 03:23:15;;;;;;;12.50;12.20;;;21.20;93.50;;;;;;5032683;28;20873;-67
2023/10/25 03:25:41;;;;;;;11.70;11.40;;;21.20;93.60;;;;;;5032643;28;20449;-67
2023/10/25 03:28:08;;;;;;;12.70;12.30;;;21.20;93.60;;;;;;5032514;28;20894;-67
2023/10/25 03:30:37;;;;;;;12.57;12.20;;;21.20;93.60;;;;;;5032573;28;20559;-67
2023/10/25 03:33:04;;;;;;;12.17;11.37;;;21.20;93.60;;;;;;5032301;28;20483;-67
2023/10/25 03:35:31;;;;;;;12.43;12.03;;;21.20;93.60;;;;;;5032523;28;20974;-67
2023/10/25 03:37:57;;;;;;;12.00;11.60;;;21.20;93.60;;;;;;5032166;28;20481;-67
2023/10/25 03:40:26;;;;;;;12.50;12.00;;;21.20;93.70;;;;;;5032345;28;20491;-67
2023/10/25 03:42:53;;;;;;;13.27;12.80;;;21.20;93.70;;;;;;5032181;28;20477;-67
2023/10/25 03:45:19;;;;;;;13.73;13.33;;;21.20;93.70;;;;;;5032353;28;20530;-67
2023/10/25 03:47:46;;;;;;;12.50;12.10;;;21.20;93.70;;;;;;5031892;28;20500;-67
2023/10/25 03:50:13;;;;;;;12.17;11.77;;;21.20;93.70;;;;;;5032184;28;20975;-67
2023/10/25 03:52:40;;;;;;;12.80;12.40;;;21.20;93.70;;;;;;5031975;28;20516;-67
2023/10/25 03:55:08;;;;;;;12.40;12.10;;;21.20;93.70;;;;;;5031984;28;20469;-67
2023/10/25 03:57:36;;;;;;;12.90;12.50;;;21.20;93.60;;;;;;5032204;28;20471;-67
2023/10/25 04:00:03;;;;;;;13.00;12.60;;;21.20;93.60;;;;;;5031867;28;20516;-67
2023/10/25 04:02:30;;;;;;;12.80;12.40;;;21.20;93.60;;;;;;5031942;28;20524;-67
2023/10/25 04:04:57;;;;;;;13.63;13.27;;;21.20;93.60;;;;;;5031782;28;20476;-67
2023/10/25 04:07:24;;;;;;;13.20;12.90;;;21.20;93.60;;;;;;5031778;28;20500;-67
2023/10/25 04:09:51;;;;;;;13.40;13.10;;;21.20;93.60;;;;;;5032016;28;20499;-67
2023/10/25 04:12:18;;;;;;;13.23;12.90;;;21.20;93.60;;;;;;5031950;28;20473;-67
2023/10/25 04:14:46;;;;;;;13.00;12.60;;;21.20;93.50;;;;;;5032306;28;20445;-67
2023/10/25 04:17:13;;;;;;;13.70;13.30;;;21.20;93.60;;;;;;5034191;28;20500;-67
2023/10/25 04:19:41;;;;;;;13.00;12.70;;;21.20;93.50;;;;;;5034176;28;20956;-67
2023/10/25 04:22:08;;;;;;;14.10;13.70;;;21.20;93.50;;;;;;5034578;28;20465;-68
2023/10/25 04:24:35;;;;;;;14.30;13.80;;;21.20;93.60;;;;;;5034271;28;20465;-67
2023/10/25 04:27:02;;;;;;;14.10;13.70;;;21.20;93.70;;;;;;5033470;28;20499;-67
2023/10/25 04:29:29;;;;;;;14.27;13.77;;;21.20;93.70;;;;;;5034359;28;20501;-67
2023/10/25 04:31:58;;;;;;;14.97;14.47;;;21.20;93.70;;;;;;5034210;28;20520;-67
2023/10/25 04:34:24;;;;;;;14.10;13.70;;;21.20;93.70;;;;;;5033993;28;20473;-69
2023/10/25 04:36:52;;;;;;;13.93;13.40;;;21.20;93.70;;;;;;5033397;28;20476;-69
2023/10/25 04:39:19;;;;;;;15.33;14.73;;;21.20;93.70;;;;;;5033879;28;20508;-69
2023/10/25 04:41:46;;;;;;;14.73;14.30;;;21.30;93.80;;;;;;5033317;28;20528;-69
2023/10/25 04:44:14;;;;;;;15.77;14.87;;;21.30;94.40;;;;;;5033353;28;20545;-70
2023/10/25 04:46:41;;;;;;;25.90;17.67;;;21.40;97.40;;;;;;5033866;28;20907;-70
2023/10/25 04:49:09;;;;;;;17.97;16.23;;;21.40;99.90;;;;;;5035880;28;20437;-71
2023/10/25 04:51:36;;;;;;;21.13;18.50;;;21.40;99.90;;;;;;5036213;28;20530;-70
2023/10/25 04:54:03;;;;;;;19.67;18.20;;;21.40;99.90;;;;;;5036796;28;20500;-69
2023/10/25 04:56:30;;;;;;;18.23;16.73;;;21.40;99.90;;;;;;5035503;28;20755;-70
2023/10/25 04:58:57;;;;;;;18.87;17.40;;;21.40;99.90;;;;;;5036323;28;20484;-70
2023/10/25 05:01:23;;;;;;;21.50;19.70;;;21.30;99.90;;;;;;5034047;28;20479;-70
2023/10/25 05:03:50;;;;;;;19.60;17.50;;;21.40;99.90;;;;;;5032542;28;20477;-70
2023/10/25 05:06:19;;;;;;;21.40;19.47;;;21.30;99.90;;;;;;5033011;28;20473;-69
2023/10/25 05:08:47;;;;;;;17.00;15.90;;;21.30;99.90;;;;;;5031487;28;20516;-71
2023/10/25 05:11:16;;;;;;;16.93;15.60;;;21.30;99.90;;;;;;5031645;28;20476;-71
2023/10/25 05:13:44;;;;;;;17.10;16.10;;;21.30;99.90;;;;;;5031303;28;20437;-71
2023/10/25 05:16:12;;;;;;;19.53;17.50;;;21.30;99.90;;;;;;5031404;28;20445;-70
2023/10/25 05:18:39;;;;;;;17.37;15.87;;;21.30;99.90;;;;;;5031319;28;20839;-71
2023/10/25 05:21:07;;;;;;;19.03;16.80;;;21.30;99.90;;;;;;5031421;28;20472;-71
2023/10/25 05:23:36;;;;;;;18.97;17.33;;;21.30;99.90;;;;;;5031247;28;20564;-71
2023/10/25 05:26:04;;;;;;;17.47;15.87;;;21.30;99.90;;;;;;5031162;28;20477;-71
2023/10/25 05:28:32;;;;;;;17.13;15.80;;;21.30;99.90;;;;;;5031271;28;20481;-70
2023/10/25 05:31:01;;;;;;;17.33;16.33;;;21.30;99.90;;;;;;5031690;28;20441;-71
2023/10/25 05:33:30;;;;;;;17.47;16.20;;;21.30;99.80;;;;;;5031661;28;20816;-71
2023/10/25 05:35:57;;;;;;;20.53;18.83;;;21.30;99.60;;;;;;5031067;28;20575;-70
2023/10/25 05:38:25;;;;;;;18.03;16.57;;;21.30;99.40;;;;;;5032280;28;20493;-70
2023/10/25 05:40:54;;;;;;;16.67;15.33;;;21.30;99.20;;;;;;5034824;28;20465;-71
2023/10/25 05:43:27;;;;;;;17.77;16.43;;;21.30;99.00;;;;;;5034680;28;20437;-71
2023/10/25 05:45:54;;;;;;;16.20;15.10;;;21.30;98.80;;;;;;5034825;28;20476;-71
2023/10/25 05:48:21;;;;;;;16.30;15.17;;;21.30;98.60;;;;;;5034695;28;20519;-71
2023/10/25 05:50:51;;;;;;;16.53;15.80;;;21.30;98.40;;;;;;5034524;28;20484;-71
2023/10/25 05:53:19;;;;;;;18.17;16.73;;;21.30;98.30;;;;;;5034843;28;20500;-71
2023/10/25 05:55:47;;;;;;;16.83;15.77;;;21.30;98.20;;;;;;5034751;28;20441;-71
2023/10/25 05:58:16;;;;;;;17.30;16.30;;;21.30;98.10;;;;;;5034577;28;20496;-71
2023/10/25 06:00:48;;;;;;;16.20;15.40;;;21.30;98.30;;;;;;5034460;28;20508;-72
2023/10/25 06:03:19;;;;;;;18.70;17.60;;;21.30;97.90;;;;;;5034397;28;20468;-71
2023/10/25 06:05:47;;;;;;;19.27;18.30;;;21.20;97.70;;;;;;5034437;28;20954;-71
2023/10/25 06:08:15;;;;;;;16.90;16.00;;;21.20;97.60;;;;;;5034249;28;20481;-71
2023/10/25 06:10:43;;;;;;;18.40;17.40;;;21.20;97.50;;;;;;5034229;28;20544;-71
2023/10/25 06:13:10;;;;;;;18.53;17.63;;;21.20;97.40;;;;;;5034452;28;20449;-71
2023/10/25 06:15:39;;;;;;;18.87;17.23;;;21.20;97.30;;;;;;5034216;28;20469;-71
2023/10/25 06:18:07;;;;;;;16.90;16.10;;;21.20;97.30;;;;;;5034046;28;20497;-71
2023/10/25 06:20:35;;;;;;;17.40;16.63;;;21.20;97.20;;;;;;5033957;28;20858;-71
2023/10/25 06:23:02;;;;;;;17.67;16.60;;;21.20;97.10;;;;;;5034129;28;20437;-71
2023/10/25 06:25:30;;;;;;;17.90;16.90;;;21.20;97.00;;;;;;5034044;28;20863;-71
2023/10/25 06:27:59;;;;;;;20.83;19.33;;;21.20;96.90;;;;;;5033842;28;20984;-71
2023/10/25 06:30:27;;;;;;;18.13;17.07;;;21.20;96.80;;;;;;5033856;28;20441;-71
2023/10/25 06:32:58;;;;;;;18.30;17.27;;;21.20;96.70;;;;;;5034136;28;20449;-71
2023/10/25 06:35:25;;;;;;;17.20;16.40;;;21.20;96.60;;;;;;5033715;28;20456;-71
2023/10/25 06:37:53;;;;;;;17.77;16.87;;;21.20;96.60;;;;;;5033652;28;20500;-71
2023/10/25 06:40:20;;;;;;;17.60;16.70;;;21.20;96.50;;;;;;5033644;28;20539;-71
2023/10/25 06:42:48;;;;;;;17.23;16.53;;;21.20;96.50;;;;;;5033710;28;20869;-70
2023/10/25 06:45:15;;;;;;;17.50;16.47;;;21.20;96.40;;;;;;5033594;28;20501;-71
2023/10/25 06:47:43;;;;;;;16.40;15.60;;;21.20;96.40;;;;;;5033311;28;20465;-71
2023/10/25 06:50:14;;;;;;;17.40;16.47;;;21.20;96.30;;;;;;5032608;28;20472;-71
2023/10/25 06:52:41;;;;;;;16.43;15.27;;;21.20;96.20;;;;;;5033506;28;20488;-72
2023/10/25 06:55:10;;;;;;;16.37;15.50;;;21.20;96.10;;;;;;5033597;28;20476;-71
2023/10/25 06:57:37;;;;;;;16.73;15.73;;;21.20;96.10;;;;;;5033392;28;20890;-71
2023/10/25 07:00:08;;;;;;;16.07;15.37;;;21.20;96.00;;;;;;5033313;28;20512;-71
2023/10/25 07:02:43;;;;;;;16.03;15.30;;;21.20;96.30;;;;;;5033342;28;20460;-71
2023/10/25 07:05:14;;;;;;;16.20;15.60;;;21.20;96.00;;;;;;5033196;28;20448;-71
2023/10/25 07:07:43;;;;;;;16.43;15.83;;;21.20;95.90;;;;;;5033059;28;20560;-71
2023/10/25 07:10:12;;;;;;;15.87;15.27;;;21.20;95.90;;;;;;5033180;28;20522;-71
2023/10/25 07:12:40;;;;;;;15.57;14.97;;;21.20;95.80;;;;;;5033022;28;20532;-71
2023/10/25 07:15:07;;;;;;;15.37;14.57;;;21.20;95.70;;;;;;5033010;28;20468;-71
2023/10/25 07:17:34;;;;;;;15.40;14.70;;;21.20;95.70;;;;;;5032932;28;20508;-71
2023/10/25 07:20:01;;;;;;;15.13;14.57;;;21.20;95.60;;;;;;5032931;28;20516;-70
2023/10/25 07:22:30;;;;;;;16.77;16.07;;;21.20;95.50;;;;;;5032906;28;20478;-70
2023/10/25 07:24:57;;;;;;;16.53;15.73;;;21.20;95.50;;;;;;5032796;28;20445;-71
2023/10/25 07:27:24;;;;;;;16.10;15.43;;;21.20;95.50;;;;;;5032728;28;20496;-71
2023/10/25 07:29:51;;;;;;;16.53;15.63;;;21.20;95.50;;;;;;5032759;28;20473;-71
2023/10/25 07:32:18;;;;;;;16.70;15.87;;;21.20;95.40;;;;;;5032814;28;20518;-71
2023/10/25 07:34:45;;;;;;;16.10;15.40;;;21.20;95.40;;;;;;5032577;28;20527;-71
2023/10/25 07:37:12;;;;;;;15.70;15.10;;;21.20;95.40;;;;;;5032599;28;20495;-71
2023/10/25 07:39:41;;;;;;;14.87;14.37;;;21.20;95.30;;;;;;5032497;28;21012;-71
2023/10/25 07:42:08;;;;;;;15.57;14.87;;;21.20;95.30;;;;;;5032472;28;20827;-71
2023/10/25 07:44:35;;;;;;;16.20;15.53;;;21.10;95.20;;;;;;5032512;28;20500;-71
2023/10/25 07:47:03;;;;;;;15.40;14.80;;;21.10;95.20;;;;;;5032208;28;20512;-71
2023/10/25 07:49:33;;;;;;;15.50;14.90;;;21.20;95.20;;;;;;5032502;28;20445;-71
2023/10/25 07:52:00;;;;;;;15.53;14.93;;;21.20;95.20;;;;;;5032295;28;20477;-70
2023/10/25 07:54:27;;;;;;;16.57;15.77;;;21.10;95.10;;;;;;5032245;28;20473;-71
2023/10/25 07:56:55;;;;;;;15.80;14.80;;;21.20;95.10;;;;;;5032275;28;20477;-72
2023/10/25 07:59:22;;;;;;;16.43;15.60;;;21.20;95.00;;;;;;5032252;28;20897;-71
2023/10/25 08:01:49;;;;;;;16.70;15.80;;;21.20;95.00;;;;;;5032012;28;20503;-71
2023/10/25 08:04:16;;;;;;;16.07;15.37;;;21.20;95.00;;;;;;5032130;28;20568;-72
2023/10/25 08:06:43;;;;;;;16.00;15.40;;;21.20;94.90;;;;;;5032011;28;20472;-70
2023/10/25 08:09:10;;;;;;;15.57;15.07;;;21.10;94.90;;;;;;5032015;28;20445;-70
2023/10/25 08:11:37;;;;;;;17.37;16.70;;;21.20;94.90;;;;;;5031928;28;20488;-71
2023/10/25 08:14:06;;;;;;;16.00;15.30;;;21.20;94.80;;;;;;5031965;28;20495;-71
2023/10/25 08:16:38;;;;;;;15.90;15.30;;;21.20;94.80;;;;;;5031826;28;20473;-71
2023/10/25 08:19:05;;;;;;;15.30;14.80;;;21.10;94.70;;;;;;5031824;28;20534;-71
2023/10/25 08:21:32;;;;;;;15.10;14.60;;;21.10;94.80;;;;;;5031784;28;20481;-71
2023/10/25 08:24:01;;;;;;;16.67;15.97;;;21.10;94.70;;;;;;5032151;28;20940;-70
2023/10/25 08:26:28;;;;;;;16.70;16.00;;;21.10;94.70;;;;;;5031721;28;20485;-71
2023/10/25 08:28:55;;;;;;;15.37;14.87;;;21.10;94.70;;;;;;5031665;28;20895;-71
2023/10/25 08:31:23;;;;;;;15.73;15.20;;;21.20;94.70;;;;;;5031903;28;20477;-71
2023/10/25 08:33:50;;;;;;;15.53;15.03;;;21.20;94.60;;;;;;5031987;28;20454;-71
2023/10/25 08:36:17;;;;;;;16.30;15.70;;;21.20;94.60;;;;;;5031609;28;20480;-71
2023/10/25 08:38:44;;;;;;;16.20;15.63;;;21.10;94.50;;;;;;5031540;28;20874;-70
2023/10/25 08:41:11;;;;;;;16.57;15.87;;;21.20;94.50;;;;;;5031522;28;20531;-72
2023/10/25 08:43:39;;;;;;;15.90;15.40;;;21.20;94.40;;;;;;5031580;28;20536;-71
2023/10/25 08:46:07;;;;;;;16.33;15.63;;;21.20;94.40;;;;;;5031729;28;20451;-71
2023/10/25 08:48:35;;;;;;;16.63;16.13;;;21.20;94.40;;;;;;5031743;28;20507;-71
2023/10/25 08:51:03;;;;;;;16.97;16.37;;;21.10;94.40;;;;;;5031502;28;20437;-71
2023/10/25 08:53:31;;;;;;;17.27;16.57;;;21.10;94.40;;;;;;5031485;28;20860;-71
2023/10/25 08:55:59;;;;;;;16.17;15.67;;;21.20;94.30;;;;;;5031475;28;20528;-71
2023/10/25 08:58:26;;;;;;;16.70;16.20;;;21.10;94.30;;;;;;5031316;28;20546;-70
2023/10/25 09:00:55;;;;;;;16.30;15.67;;;21.10;94.30;;;;;;5031600;28;20523;-70
2023/10/25 09:03:45;;;;;;;17.20;16.50;;;21.20;94.30;;;;;;5031318;28;20484;-71
2023/10/25 09:06:23;;;;;;;16.00;15.40;;;21.10;94.20;;;;;;5031351;28;20476;-71
2023/10/25 09:08:59;;;;;;;16.33;15.83;;;21.20;94.20;;;;;;5031383;28;20488;-71
2023/10/25 09:11:26;;;;;;;17.63;16.80;;;21.20;94.20;;;;;;5031391;28;20441;-71
2023/10/25 09:13:57;;;;;;;17.60;17.00;;;21.10;94.10;;;;;;5033453;28;20876;-70
2023/10/25 09:16:27;;;;;;;17.20;16.60;;;21.10;94.10;;;;;;5035173;28;20445;-70
2023/10/25 09:18:59;;;;;;;17.13;16.40;;;21.10;94.10;;;;;;5035255;28;20461;-71
2023/10/25 09:21:27;;;;;;;17.10;16.60;;;21.10;94.10;;;;;;5035084;28;20516;-71
2023/10/25 09:23:56;;;;;;;17.03;16.53;;;21.10;94.10;;;;;;5035026;28;20964;-71
2023/10/25 09:26:23;;;;;;;17.57;16.97;;;21.10;94.00;;;;;;5035063;28;20480;-71
2023/10/25 09:28:54;;;;;;;17.33;16.80;;;21.10;94.00;;;;;;5034871;28;20460;-71
2023/10/25 09:31:24;;;;;;;16.10;15.40;;;21.10;94.00;;;;;;5034890;28;20495;-70
2023/10/25 09:33:51;;;;;;;16.70;16.10;;;21.10;94.00;;;;;;5034970;28;20479;-71
2023/10/25 09:36:20;;;;;;;16.03;15.60;;;21.10;94.00;;;;;;5034944;28;21037;-71
2023/10/25 09:38:48;;;;;;;16.53;16.10;;;21.10;93.90;;;;;;5034740;28;20512;-70
2023/10/25 09:41:17;;;;;;;16.57;15.97;;;21.10;93.90;;;;;;5034751;28;20932;-70
2023/10/25 09:43:48;;;;;;;16.70;16.20;;;21.10;93.90;;;;;;5034701;28;20534;-71
2023/10/25 09:46:17;;;;;;;18.83;18.03;;;21.10;93.90;;;;;;5034716;28;20476;-71
2023/10/25 09:48:55;;;;;;;17.70;17.10;;;21.10;93.90;;;;;;5034703;28;20949;-70
2023/10/25 09:51:34;;;;;;;17.40;16.90;;;21.10;93.90;;;;;;5034582;28;20536;-70
2023/10/25 09:54:07;;;;;;;15.80;15.30;;;21.10;93.90;;;;;;5034614;28;20483;-71
2023/10/25 09:56:36;;;;;;;16.70;16.30;;;21.10;93.80;;;;;;5034610;28;20518;-70
2023/10/25 09:59:05;;;;;;;16.80;16.30;;;21.10;93.90;;;;;;5034498;28;20476;-72
2023/10/25 10:01:32;;;;;;;17.10;16.30;;;21.10;93.90;;;;;;5034289;28;20516;-70
2023/10/25 10:04:06;;;;;;;17.00;16.50;;;21.10;93.90;;;;;;5034440;28;20553;-70
2023/10/25 10:06:39;;;;;;;17.10;16.50;;;21.10;93.80;;;;;;5034531;28;20477;-71
2023/10/25 10:09:15;;;;;;;17.13;16.63;;;21.10;93.80;;;;;;5034328;28;20487;-70
2023/10/25 10:11:49;;;;;;;17.27;16.67;;;21.10;93.80;;;;;;5034319;28;20429;-70
2023/10/25 10:14:29;;;;;;;18.30;17.80;;;21.10;93.80;;;;;;5034140;28;20445;-71
2023/10/25 10:17:04;;;;;;;17.37;16.87;;;21.10;93.70;;;;;;5034077;28;20877;-70
2023/10/25 10:19:32;;;;;;;16.63;16.13;;;21.10;93.70;;;;;;5034053;28;20472;-71
2023/10/25 10:22:11;;;;;;;17.77;17.07;;;21.10;93.70;;;;;;5034195;28;20995;-70
2023/10/25 10:24:41;;;;;;;16.87;16.37;;;21.10;93.70;;;;;;5032908;28;20532;-70
2023/10/25 10:27:08;;;;;;;17.30;16.70;;;21.10;93.70;;;;;;5034280;28;20457;-70
2023/10/25 10:29:43;;;;;;;17.20;16.60;;;21.10;93.70;;;;;;5033904;28;20472;-70
2023/10/25 10:32:11;;;;;;;16.77;16.30;;;21.10;93.60;;;;;;5033835;28;20476;-70
2023/10/25 10:34:40;;;;;;;17.17;16.67;;;21.10;93.60;;;;;;5033863;28;20480;-70
2023/10/25 10:37:10;;;;;;;17.00;16.47;;;21.10;93.60;;;;;;5033719;28;20507;-70
2023/10/25 10:39:38;;;;;;;15.93;15.53;;;21.00;93.60;;;;;;5033767;28;20437;-70
2023/10/25 10:42:06;;;;;;;17.57;17.07;;;21.10;93.60;;;;;;5033563;28;20484;-71
2023/10/25 10:44:38;;;;;;;17.90;17.33;;;21.10;93.60;;;;;;5033551;28;20483;-70
2023/10/25 10:47:09;;;;;;;17.03;16.47;;;21.00;93.50;;;;;;5033428;28;20484;-70
2023/10/25 10:49:39;;;;;;;16.30;15.80;;;21.10;93.60;;;;;;5033658;28;20436;-70
2023/10/25 10:52:07;;;;;;;17.67;17.17;;;21.10;93.60;;;;;;5033593;28;20805;-72
2023/10/25 10:54:35;;;;;;;16.80;16.20;;;21.10;93.50;;;;;;5033473;28;20492;-70
2023/10/25 10:57:02;;;;;;;16.67;16.17;;;21.00;93.50;;;;;;5033232;28;20493;-70
2023/10/25 10:59:29;;;;;;;16.07;15.63;;;21.00;93.50;;;;;;5033494;28;20476;-70
2023/10/25 11:01:57;;;;;;;15.37;14.87;;;21.10;93.50;;;;;;5033535;28;20512;-69
2023/10/25 11:04:24;;;;;;;16.23;15.73;;;21.10;93.50;;;;;;5033205;28;20445;-70
2023/10/25 11:06:51;;;;;;;16.37;15.93;;;21.10;93.50;;;;;;5033056;28;20952;-70
2023/10/25 11:09:18;;;;;;;16.00;15.60;;;21.00;93.40;;;;;;5033245;28;20469;-70
2023/10/25 11:11:46;;;;;;;16.47;15.93;;;21.00;93.40;;;;;;5033142;28;20469;-71
2023/10/25 11:14:13;;;;;;;17.37;16.80;;;21.00;93.40;;;;;;5033050;28;20449;-71
2023/10/25 11:16:41;;;;;;;17.03;16.50;;;21.10;93.40;;;;;;5032977;28;20456;-71
2023/10/25 11:19:09;;;;;;;15.40;15.00;;;21.00;93.30;;;;;;5032998;28;20480;-70
2023/10/25 11:21:36;;;;;;;15.90;15.50;;;21.10;93.30;;;;;;5032849;28;20516;-70
2023/10/25 11:24:06;;;;;;;16.33;15.80;;;21.10;93.30;;;;;;5032802;28;20477;-71
2023/10/25 11:26:40;;;;;;;16.03;15.63;;;21.10;93.30;;;;;;5032917;28;20445;-70
2023/10/25 11:29:09;;;;;;;15.37;14.97;;;21.00;93.20;;;;;;5033049;28;20445;-70
2023/10/25 11:31:35;;;;;;;16.40;15.90;;;21.10;93.30;;;;;;5032841;28;20442;-70
2023/10/25 11:34:02;;;;;;;16.30;15.80;;;21.10;93.20;;;;;;5032563;28;20484;-72
2023/10/25 11:36:31;;;;;;;17.07;16.57;;;21.00;93.20;;;;;;5032395;28;20473;-71
2023/10/25 11:39:06;;;;;;;16.83;16.30;;;21.10;93.30;;;;;;5032810;28;20640;-70
2023/10/25 11:41:33;;;;;;;16.40;15.97;;;21.00;93.20;;;;;;5032647;28;20479;-70
2023/10/25 11:44:01;;;;;;;16.93;16.43;;;21.00;93.20;;;;;;5032506;28;20975;-70
2023/10/25 11:46:36;;;;;;;16.50;16.10;;;21.00;93.20;;;;;;5032493;28;20526;-70
2023/10/25 11:49:04;;;;;;;15.23;14.83;;;21.00;93.20;;;;;;5032404;28;20511;-71
2023/10/25 11:51:33;;;;;;;15.97;15.20;;;21.00;93.20;;;;;;5032341;28;20468;-70
2023/10/25 11:54:00;;;;;;;15.40;15.00;;;21.00;93.20;;;;;;5032527;28;20904;-70
2023/10/25 11:56:27;;;;;;;16.30;15.80;;;21.00;93.20;;;;;;5032224;28;20484;-71
2023/10/25 11:58:54;;;;;;;15.90;15.40;;;21.00;93.20;;;;;;5032113;28;20920;-69
2023/10/25 12:01:21;;;;;;;15.77;15.37;;;21.00;93.10;;;;;;5032165;28;20779;-70
2023/10/25 12:03:49;;;;;;;16.13;15.73;;;21.00;93.10;;;;;;5032146;28;20472;-70
2023/10/25 12:06:16;;;;;;;16.20;15.70;;;21.00;93.10;;;;;;5032098;28;20507;-71
2023/10/25 12:08:43;;;;;;;16.00;15.50;;;21.00;93.10;;;;;;5031928;28;20497;-70
2023/10/25 12:11:11;;;;;;;16.10;15.70;;;21.00;93.10;;;;;;5031951;28;20469;-70
2023/10/25 12:13:38;;;;;;;16.03;15.53;;;21.00;93.10;;;;;;5032080;28;20928;-70
2023/10/25 12:16:06;;;;;;;15.40;15.00;;;21.00;93.10;;;;;;5031835;28;20481;-72
2023/10/25 12:18:35;;;;;;;16.60;16.10;;;21.00;93.10;;;;;;5031875;28;20463;-70
2023/10/25 12:21:04;;;;;;;15.10;14.70;;;21.00;93.10;;;;;;5031781;28;20476;-70
2023/10/25 12:23:31;;;;;;;16.47;16.03;;;21.00;93.00;;;;;;5031700;28;20979;-71
2023/10/25 12:25:58;;;;;;;15.37;14.93;;;21.00;93.00;;;;;;5031710;28;20461;-71
2023/10/25 12:28:25;;;;;;;15.27;14.87;;;21.00;93.00;;;;;;5031651;28;20461;-72
2023/10/25 12:30:53;;;;;;;15.30;14.90;;;21.00;93.00;;;;;;5031755;28;20499;-71
2023/10/25 12:33:20;;;;;;;15.80;15.40;;;21.00;92.90;;;;;;5031703;28;20476;-71